Time;durP1;ratioP1;P1;durP2;ratioP2;P2;SDS_P1;SDS_P2;PMS_P1;PMS_P2;Temp;Humidity;BMP_temperature;BMP_pressure;BME280_temperature;BME280_humidity;BME280_pressure;Samples;Min_cycle;Max_cycle;Signal;HPM_P1;HPM_P2
2022/03/12 00:00:48;;;;;;;9.68;5.55;;;6.50;70.20;;;;;;5038108;28;20312;-61
2022/03/12 00:03:17;;;;;;;7.97;5.70;;;6.40;70.20;;;;;;5038894;28;20051;-61
2022/03/12 00:05:52;;;;;;;7.38;5.20;;;6.40;69.80;;;;;;5043538;28;20086;-60
2022/03/12 00:08:21;;;;;;;9.02;5.85;;;6.40;69.90;;;;;;5039996;28;20879;-61
2022/03/12 00:10:50;;;;;;;11.25;5.65;;;6.40;69.90;;;;;;5048798;28;20044;-60
2022/03/12 00:13:19;;;;;;;10.70;5.57;;;6.50;68.60;;;;;;5043712;28;20056;-60
2022/03/12 00:15:45;;;;;;;8.45;6.05;;;6.50;68.80;;;;;;5022944;28;20044;-61
2022/03/12 00:18:11;;;;;;;7.70;5.20;;;6.50;69.00;;;;;;5040764;28;20083;-60
2022/03/12 00:20:37;;;;;;;10.43;5.63;;;6.40;69.40;;;;;;5018347;28;20567;-60
2022/03/12 00:23:02;;;;;;;7.05;5.55;;;6.40;69.20;;;;;;5020883;28;20091;-61
2022/03/12 00:25:29;;;;;;;6.38;5.50;;;6.40;69.10;;;;;;5042393;28;21080;-61
2022/03/12 00:27:54;;;;;;;7.85;5.28;;;6.40;69.30;;;;;;5027906;28;20650;-59
2022/03/12 00:30:24;;;;;;;7.75;5.07;;;6.40;69.20;;;;;;5040734;28;20113;-59
2022/03/12 00:32:51;;;;;;;7.30;4.65;;;6.40;70.00;;;;;;5041246;28;20115;-59
2022/03/12 00:35:17;;;;;;;15.10;7.82;;;6.40;69.40;;;;;;5040944;28;20033;-60
2022/03/12 00:37:44;;;;;;;6.82;4.82;;;6.30;69.70;;;;;;5043392;28;20044;-60
2022/03/12 00:40:15;;;;;;;7.47;5.70;;;6.30;69.80;;;;;;5047200;28;20048;-61
2022/03/12 00:42:41;;;;;;;10.68;5.80;;;6.30;69.60;;;;;;5045282;28;20336;-60
2022/03/12 00:45:07;;;;;;;6.82;5.68;;;6.30;69.80;;;;;;5041883;28;20047;-60
2022/03/12 00:47:33;;;;;;;9.43;5.82;;;6.30;70.00;;;;;;5025367;28;20134;-60
2022/03/12 00:49:59;;;;;;;13.02;5.53;;;6.30;70.10;;;;;;5041763;28;20132;-59
2022/03/12 00:52:24;;;;;;;8.45;5.10;;;6.20;70.30;;;;;;5039574;28;20076;-59
2022/03/12 00:54:50;;;;;;;6.93;5.25;;;6.30;69.90;;;;;;5040042;28;20047;-60
2022/03/12 00:57:15;;;;;;;9.10;4.97;;;6.20;69.60;;;;;;5040671;28;20043;-61
2022/03/12 00:59:42;;;;;;;6.72;5.38;;;6.30;69.20;;;;;;5041747;28;20045;-59
2022/03/12 01:02:14;;;;;;;7.43;5.00;;;6.30;69.00;;;;;;5036815;28;20159;-62
2022/03/12 01:04:40;;;;;;;5.78;5.18;;;6.30;69.20;;;;;;5040530;28;20041;-60
2022/03/12 01:07:05;;;;;;;6.05;4.03;;;6.30;69.10;;;;;;5038754;28;20743;-61
2022/03/12 01:09:31;;;;;;;9.88;5.60;;;6.30;69.00;;;;;;5023983;28;20041;-61
2022/03/12 01:11:57;;;;;;;7.82;5.18;;;6.30;69.10;;;;;;5040962;28;20852;-60
2022/03/12 01:14:23;;;;;;;10.32;6.03;;;6.20;69.20;;;;;;5039382;28;20047;-60
2022/03/12 01:16:48;;;;;;;9.90;5.72;;;6.20;70.00;;;;;;5043377;28;20119;-60
2022/03/12 01:19:15;;;;;;;6.28;5.47;;;6.30;69.90;;;;;;5041110;28;20080;-60
2022/03/12 01:21:41;;;;;;;9.88;6.03;;;6.20;70.60;;;;;;5042651;28;20657;-61
2022/03/12 01:24:07;;;;;;;9.63;6.05;;;6.20;70.80;;;;;;5017425;28;20037;-60
2022/03/12 01:26:34;;;;;;;7.82;5.57;;;6.20;70.80;;;;;;5042342;28;20053;-60
2022/03/12 01:29:00;;;;;;;7.65;6.03;;;6.20;70.90;;;;;;5037371;28;20040;-60
2022/03/12 01:31:26;;;;;;;7.90;5.90;;;6.20;71.40;;;;;;5040912;28;20710;-60
2022/03/12 01:33:51;;;;;;;7.60;5.50;;;6.20;70.70;;;;;;5042188;28;20044;-61
2022/03/12 01:36:17;;;;;;;7.93;5.63;;;6.20;70.60;;;;;;5044864;28;20768;-60
2022/03/12 01:38:48;;;;;;;9.35;5.68;;;6.20;71.40;;;;;;5023099;28;20053;-60
2022/03/12 01:41:18;;;;;;;16.65;5.90;;;6.10;71.40;;;;;;5033962;28;20048;-59
2022/03/12 01:43:44;;;;;;;10.18;5.70;;;6.10;71.30;;;;;;5045214;28;20059;-59
2022/03/12 01:46:11;;;;;;;6.55;5.88;;;6.10;71.40;;;;;;5035188;28;20045;-59
2022/03/12 01:48:45;;;;;;;11.32;5.95;;;6.10;71.50;;;;;;5041779;28;20148;-60
2022/03/12 01:51:11;;;;;;;10.00;7.72;;;6.10;71.50;;;;;;5053193;28;20036;-62
2022/03/12 01:53:36;;;;;;;9.00;5.72;;;6.10;72.30;;;;;;5044418;28;20142;-59
2022/03/12 01:56:03;;;;;;;9.77;6.22;;;6.10;72.30;;;;;;5051765;28;20048;-61
2022/03/12 01:58:29;;;;;;;8.57;6.32;;;6.10;72.10;;;;;;5025899;28;20124;-59
2022/03/12 02:00:57;;;;;;;5.88;5.07;;;6.10;72.00;;;;;;5053150;28;20575;-59
2022/03/12 02:03:26;;;;;;;8.85;5.88;;;6.10;72.20;;;;;;5020657;28;20079;-59
2022/03/12 02:05:52;;;;;;;10.40;5.32;;;6.10;71.90;;;;;;5046098;28;20044;-59
2022/03/12 02:08:21;;;;;;;12.00;5.63;;;6.10;71.90;;;;;;5046795;28;20048;-60
2022/03/12 02:10:49;;;;;;;10.07;6.55;;;6.10;72.20;;;;;;5049109;28;20059;-59
2022/03/12 02:13:16;;;;;;;9.73;6.10;;;6.00;72.10;;;;;;5028905;28;20463;-59
2022/03/12 02:15:42;;;;;;;8.18;5.38;;;6.10;72.10;;;;;;5016313;28;20049;-59
2022/03/12 02:18:11;;;;;;;7.03;5.85;;;6.10;73.20;;;;;;5041210;28;20048;-59
2022/03/12 02:20:38;;;;;;;10.25;5.65;;;6.10;73.10;;;;;;5047014;28;20044;-60
2022/03/12 02:23:06;;;;;;;11.20;5.72;;;6.10;73.00;;;;;;5051275;28;20052;-59
2022/03/12 02:25:33;;;;;;;8.65;5.60;;;6.00;73.00;;;;;;5053227;28;20817;-61
2022/03/12 02:28:02;;;;;;;8.57;5.50;;;6.10;73.60;;;;;;5049642;28;20118;-60
2022/03/12 02:30:40;;;;;;;6.43;5.18;;;6.00;73.70;;;;;;5039649;28;20037;-61
2022/03/12 02:33:05;;;;;;;10.82;5.93;;;6.10;73.30;;;;;;5047370;28;20250;-61
2022/03/12 02:35:35;;;;;;;9.82;4.88;;;6.00;74.20;;;;;;5036539;28;20566;-61
2022/03/12 02:38:03;;;;;;;7.72;5.95;;;6.00;73.80;;;;;;5049125;28;20059;-62
2022/03/12 02:40:29;;;;;;;9.85;6.05;;;6.00;74.30;;;;;;5035092;28;20040;-61
2022/03/12 02:42:58;;;;;;;10.07;6.63;;;6.00;74.10;;;;;;5028029;28;20060;-61
2022/03/12 02:45:27;;;;;;;10.75;6.80;;;6.00;74.60;;;;;;5038407;28;20040;-61
2022/03/12 02:47:54;;;;;;;6.78;5.47;;;6.90;75.30;;;;;;5047285;28;20064;-61
2022/03/12 02:50:21;;;;;;;8.60;5.75;;;6.00;75.90;;;;;;5056347;28;20245;-61
2022/03/12 02:52:46;;;;;;;10.43;5.93;;;5.90;75.30;;;;;;5048889;28;20043;-61
2022/03/12 02:55:24;;;;;;;11.07;6.20;;;6.00;75.40;;;;;;5048223;28;20040;-61
2022/03/12 02:57:51;;;;;;;13.70;6.03;;;6.00;75.60;;;;;;5029690;28;20049;-61
2022/03/12 03:00:18;;;;;;;10.70;5.47;;;6.00;74.50;;;;;;5054757;28;20049;-59
2022/03/12 03:02:52;;;;;;;9.35;6.20;;;6.00;74.20;;;;;;5048879;28;20071;-60
2022/03/12 03:05:31;;;;;;;10.13;6.25;;;6.00;74.90;;;;;;5055464;28;20051;-59
2022/03/12 03:07:59;;;;;;;11.95;6.32;;;6.00;74.40;;;;;;5028827;28;20130;-59
2022/03/12 03:10:37;;;;;;;6.40;5.38;;;6.00;73.80;;;;;;5045701;28;20049;-61
2022/03/12 03:13:21;;;;;;;6.45;5.32;;;6.00;74.70;;;;;;5047910;28;20106;-59
2022/03/12 03:16:09;;;;;;;7.40;6.10;;;6.00;74.90;;;;;;5050056;28;20047;-59
2022/03/12 03:18:40;;;;;;;9.32;5.50;;;6.10;74.50;;;;;;5047839;28;20765;-59
2022/03/12 03:21:09;;;;;;;11.32;5.95;;;6.00;75.40;;;;;;5034615;28;20131;-61
2022/03/12 03:23:35;;;;;;;10.10;6.03;;;6.00;75.30;;;;;;5040658;28;20115;-59
2022/03/12 03:26:02;;;;;;;7.55;5.63;;;6.00;75.50;;;;;;5050252;28;20140;-59
2022/03/12 03:28:29;;;;;;;9.43;5.78;;;6.10;76.00;;;;;;5053576;28;20045;-59
2022/03/12 03:30:55;;;;;;;7.85;5.88;;;6.10;75.60;;;;;;5051012;28;20048;-59
2022/03/12 03:33:25;;;;;;;7.03;5.95;;;6.00;75.50;;;;;;5052318;28;20900;-59
2022/03/12 03:35:51;;;;;;;8.40;6.15;;;6.00;76.30;;;;;;5053356;28;20044;-60
2022/03/12 03:38:17;;;;;;;11.40;6.72;;;6.00;76.10;;;;;;5045691;28;20100;-59
2022/03/12 03:40:44;;;;;;;9.73;6.78;;;6.00;75.80;;;;;;5050053;28;20402;-59
2022/03/12 03:43:13;;;;;;;9.15;6.78;;;6.00;76.40;;;;;;5026197;28;20805;-61
2022/03/12 03:45:40;;;;;;;8.60;6.25;;;6.00;76.50;;;;;;5046907;28;20134;-61
2022/03/12 03:48:12;;;;;;;8.95;6.40;;;6.00;76.40;;;;;;5035895;28;20151;-59
2022/03/12 03:50:38;;;;;;;12.50;5.72;;;6.00;76.70;;;;;;5029037;28;20052;-59
2022/03/12 03:53:04;;;;;;;10.02;6.15;;;5.90;77.10;;;;;;5035288;28;20397;-60
2022/03/12 03:55:31;;;;;;;7.75;5.85;;;5.90;77.00;;;;;;5044510;28;20094;-59
2022/03/12 03:57:58;;;;;;;8.00;6.45;;;5.90;76.90;;;;;;5043419;28;20057;-60
2022/03/12 04:00:24;;;;;;;7.15;5.10;;;5.90;77.40;;;;;;5055167;28;20084;-60
2022/03/12 04:03:04;;;;;;;8.75;6.65;;;5.90;77.30;;;;;;5052077;28;20037;-60
2022/03/12 04:05:32;;;;;;;7.75;5.88;;;5.90;77.20;;;;;;5054760;28;20051;-60
2022/03/12 04:07:59;;;;;;;9.13;6.20;;;5.90;77.20;;;;;;5044189;28;20701;-60
2022/03/12 04:10:28;;;;;;;8.10;5.63;;;5.80;77.40;;;;;;5047019;28;20048;-60
2022/03/12 04:12:58;;;;;;;11.48;5.97;;;5.80;78.00;;;;;;5050123;28;20044;-61
2022/03/12 04:15:24;;;;;;;10.23;5.45;;;5.80;77.80;;;;;;5031827;28;20132;-61
2022/03/12 04:17:51;;;;;;;10.95;5.78;;;5.80;77.90;;;;;;5038518;28;20072;-61
2022/03/12 04:20:18;;;;;;;9.95;6.03;;;5.70;77.80;;;;;;5047461;28;20902;-61
2022/03/12 04:22:47;;;;;;;11.07;6.45;;;5.30;78.30;;;;;;5038495;28;20564;-61
2022/03/12 04:25:13;;;;;;;7.15;5.20;;;5.60;78.50;;;;;;5038306;28;20043;-61
2022/03/12 04:27:42;;;;;;;9.10;5.40;;;5.60;78.60;;;;;;5047437;28;20459;-61
2022/03/12 04:30:09;;;;;;;9.48;7.63;;;5.60;78.70;;;;;;5036223;28;20587;-61
2022/03/12 04:32:35;;;;;;;8.82;6.13;;;5.60;78.60;;;;;;5031314;28;20526;-61
2022/03/12 04:35:02;;;;;;;7.20;5.57;;;5.50;78.60;;;;;;5055213;28;20049;-60
2022/03/12 04:37:28;;;;;;;8.32;6.15;;;5.50;78.10;;;;;;5047348;28;20055;-61
2022/03/12 04:39:53;;;;;;;9.32;6.60;;;5.50;78.30;;;;;;5036201;28;20049;-61
2022/03/12 04:42:25;;;;;;;8.27;6.22;;;5.50;78.00;;;;;;5047046;28;20055;-61
2022/03/12 04:44:51;;;;;;;8.05;6.13;;;7.10;79.10;;;;;;5035963;28;20144;-61
2022/03/12 04:47:21;;;;;;;8.82;6.20;;;5.40;77.60;;;;;;5025492;28;20764;-61
2022/03/12 04:49:47;;;;;;;6.43;5.13;;;5.40;78.40;;;;;;5055227;28;20044;-61
2022/03/12 04:52:13;;;;;;;7.07;6.25;;;5.40;77.70;;;;;;5046521;28;20040;-61
2022/03/12 04:54:39;;;;;;;8.38;5.18;;;5.40;77.40;;;;;;5055773;28;20052;-61
2022/03/12 04:57:08;;;;;;;9.18;5.53;;;5.40;77.40;;;;;;5046448;28;20048;-61
2022/03/12 04:59:33;;;;;;;9.77;5.50;;;5.40;78.10;;;;;;5033045;28;20049;-61
2022/03/12 05:01:59;;;;;;;8.65;5.75;;;5.40;78.10;;;;;;5042174;28;20048;-61
2022/03/12 05:04:24;;;;;;;7.78;5.93;;;5.40;78.00;;;;;;5054963;28;20877;-61
2022/03/12 05:06:50;;;;;;;10.00;5.50;;;5.30;78.20;;;;;;5046565;28;20110;-60
2022/03/12 05:09:15;;;;;;;9.20;5.60;;;5.30;77.90;;;;;;5033673;28;20053;-60
2022/03/12 05:11:41;;;;;;;8.65;5.47;;;5.30;77.90;;;;;;5042955;28;20891;-62
2022/03/12 05:14:10;;;;;;;8.18;5.38;;;5.20;78.30;;;;;;5039515;28;20607;-61
2022/03/12 05:16:36;;;;;;;9.43;5.47;;;5.20;78.60;;;;;;5042224;28;20499;-60
2022/03/12 05:19:04;;;;;;;9.10;5.55;;;5.20;79.10;;;;;;5039907;28;20052;-61
2022/03/12 05:21:29;;;;;;;6.88;5.55;;;5.20;79.10;;;;;;5020686;28;20055;-60
2022/03/12 05:23:55;;;;;;;9.55;5.03;;;5.10;79.20;;;;;;5049188;28;20040;-59
2022/03/12 05:26:21;;;;;;;8.90;5.32;;;5.10;79.70;;;;;;5026310;28;20060;-61
2022/03/12 05:28:47;;;;;;;7.53;5.35;;;5.10;79.20;;;;;;5047161;28;20037;-60
2022/03/12 05:31:13;;;;;;;10.52;5.35;;;5.10;78.70;;;;;;5046809;28;20044;-60
2022/03/12 05:33:39;;;;;;;7.78;5.03;;;5.10;78.50;;;;;;5032355;28;20053;-60
2022/03/12 05:36:05;;;;;;;6.65;4.90;;;5.10;77.90;;;;;;5038012;28;20725;-60
2022/03/12 05:38:39;;;;;;;9.07;5.25;;;5.10;77.50;;;;;;5043633;28;20515;-60
2022/03/12 05:41:11;;;;;;;8.27;4.82;;;5.10;77.80;;;;;;5037753;28;20566;-60
2022/03/12 05:43:40;;;;;;;6.90;4.57;;;5.10;77.90;;;;;;5044016;28;20036;-60
2022/03/12 05:46:05;;;;;;;10.30;5.43;;;5.10;78.00;;;;;;5037652;28;20138;-61
2022/03/12 05:48:32;;;;;;;8.75;6.15;;;5.10;78.10;;;;;;5029975;28;20218;-60
2022/03/12 05:50:58;;;;;;;5.43;4.72;;;5.00;77.80;;;;;;5037925;28;20053;-60
2022/03/12 05:53:25;;;;;;;5.65;4.55;;;5.00;77.60;;;;;;5028522;28;20056;-62
2022/03/12 05:55:50;;;;;;;7.70;5.55;;;5.00;77.30;;;;;;5035305;28;20091;-59
2022/03/12 05:58:19;;;;;;;10.55;5.43;;;5.00;77.60;;;;;;5045660;28;20056;-59
2022/03/12 06:00:45;;;;;;;8.27;5.55;;;5.10;77.80;;;;;;5022977;28;20052;-59
2022/03/12 06:03:11;;;;;;;6.65;4.97;;;5.00;78.10;;;;;;5047878;28;20044;-60
2022/03/12 06:05:40;;;;;;;6.70;5.25;;;5.00;78.20;;;;;;5052609;28;20806;-60
2022/03/12 06:08:07;;;;;;;6.68;5.00;;;5.00;78.60;;;;;;5045249;28;20052;-62
2022/03/12 06:10:34;;;;;;;7.20;4.53;;;5.00;78.20;;;;;;5034819;28;20048;-60
2022/03/12 06:13:00;;;;;;;8.93;5.25;;;5.00;78.70;;;;;;5041698;28;20041;-60
2022/03/12 06:15:27;;;;;;;13.57;5.75;;;5.00;78.90;;;;;;5053236;28;20169;-61
2022/03/12 06:17:53;;;;;;;7.75;4.70;;;5.00;78.70;;;;;;5035584;28;20904;-59
2022/03/12 06:20:21;;;;;;;8.05;4.60;;;5.00;79.00;;;;;;5033896;28;20500;-59
2022/03/12 06:22:48;;;;;;;6.70;4.32;;;5.00;78.90;;;;;;5042540;28;20041;-59
2022/03/12 06:25:16;;;;;;;7.07;4.78;;;5.00;79.00;;;;;;5035163;28;20044;-61
2022/03/12 06:27:43;;;;;;;7.30;5.07;;;5.00;79.30;;;;;;5036155;28;20049;-60
2022/03/12 06:30:11;;;;;;;7.78;5.00;;;5.00;80.50;;;;;;5037818;28;20041;-60
2022/03/12 06:32:38;;;;;;;9.55;5.97;;;5.10;79.80;;;;;;5038860;28;20436;-60
2022/03/12 06:35:06;;;;;;;8.23;4.72;;;5.10;79.60;;;;;;5018663;28;20413;-60
2022/03/12 06:37:32;;;;;;;7.90;5.13;;;4.80;79.10;;;;;;5034441;28;20029;-60
2022/03/12 06:40:00;;;;;;;6.28;5.03;;;5.10;79.60;;;;;;5017775;28;20056;-59
2022/03/12 06:42:29;;;;;;;6.47;4.70;;;5.10;79.90;;;;;;5033955;28;20040;-59
2022/03/12 06:44:55;;;;;;;8.25;5.70;;;5.10;80.20;;;;;;5038260;28;20052;-60
2022/03/12 06:47:26;;;;;;;7.53;4.72;;;5.10;80.40;;;;;;5039529;28;20809;-62
2022/03/12 06:49:52;;;;;;;8.18;5.28;;;5.10;80.30;;;;;;5018144;28;20418;-59
2022/03/12 06:52:17;;;;;;;7.28;5.47;;;5.10;79.70;;;;;;5040046;28;20443;-60
2022/03/12 06:54:43;;;;;;;5.10;4.63;;;5.10;79.70;;;;;;5038400;28;20801;-61
2022/03/12 06:57:08;;;;;;;7.57;4.45;;;5.20;80.20;;;;;;5036937;28;20169;-62
2022/03/12 06:59:34;;;;;;;9.68;5.00;;;5.20;79.60;;;;;;5037179;28;20188;-60
2022/03/12 07:01:59;;;;;;;5.65;4.47;;;5.20;79.60;;;;;;5036100;28;20613;-60
2022/03/12 07:04:25;;;;;;;6.88;4.55;;;5.30;79.10;;;;;;5034368;28;20037;-60
2022/03/12 07:06:51;;;;;;;5.88;4.78;;;5.30;79.30;;;;;;5036086;28;20964;-60
2022/03/12 07:09:17;;;;;;;3.83;3.50;;;5.40;80.00;;;;;;5039288;28;20107;-60
2022/03/12 07:11:43;;;;;;;5.15;4.70;;;5.50;78.50;;;;;;5022141;28;20091;-59
2022/03/12 07:14:11;;;;;;;8.45;6.13;;;5.60;77.60;;;;;;5039117;28;20045;-61
2022/03/12 07:16:37;;;;;;;9.25;5.63;;;5.70;77.40;;;;;;5038430;28;20106;-60
2022/03/12 07:19:03;;;;;;;9.45;5.57;;;5.80;76.80;;;;;;5037558;28;20053;-62
2022/03/12 07:21:29;;;;;;;8.02;5.38;;;5.90;76.70;;;;;;5043184;28;20048;-60
2022/03/12 07:23:55;;;;;;;5.35;4.80;;;6.00;76.40;;;;;;5047745;28;20049;-60
2022/03/12 07:26:21;;;;;;;7.68;4.80;;;6.10;76.00;;;;;;5052020;28;20057;-60
2022/03/12 07:28:50;;;;;;;7.50;5.43;;;6.20;76.10;;;;;;5040630;28;20762;-60
2022/03/12 07:31:16;;;;;;;7.47;4.28;;;6.20;76.10;;;;;;5044038;28;20036;-59
2022/03/12 07:33:43;;;;;;;10.32;5.85;;;6.30;75.70;;;;;;5037684;28;20056;-60
2022/03/12 07:36:09;;;;;;;7.05;5.38;;;6.30;76.20;;;;;;5044418;28;20377;-60
2022/03/12 07:38:35;;;;;;;6.97;4.60;;;6.30;76.80;;;;;;5034864;28;20064;-60
2022/03/12 07:41:03;;;;;;;8.30;5.93;;;6.30;76.70;;;;;;5039663;28;20041;-60
2022/03/12 07:43:29;;;;;;;8.05;4.45;;;6.30;76.80;;;;;;5035024;28;20044;-60
2022/03/12 07:45:56;;;;;;;6.68;5.00;;;6.30;76.40;;;;;;5045358;28;20129;-60
2022/03/12 07:48:22;;;;;;;6.30;4.57;;;6.30;76.70;;;;;;5053927;28;20051;-60
2022/03/12 07:50:48;;;;;;;9.23;4.88;;;6.40;76.50;;;;;;5052876;28;20045;-59
2022/03/12 07:53:13;;;;;;;8.27;5.95;;;6.50;76.30;;;;;;5044649;28;20750;-59
2022/03/12 07:55:40;;;;;;;7.15;4.85;;;6.60;76.40;;;;;;5054725;28;20791;-60
2022/03/12 07:58:06;;;;;;;6.13;4.78;;;6.80;76.40;;;;;;5054446;28;20531;-60
2022/03/12 08:00:32;;;;;;;7.03;5.35;;;6.90;76.80;;;;;;5054149;28;20055;-60
2022/03/12 08:02:58;;;;;;;7.38;5.15;;;7.10;77.10;;;;;;5046727;28;20045;-60
2022/03/12 08:05:25;;;;;;;7.82;6.45;;;7.30;76.30;;;;;;5035172;28;20530;-60
2022/03/12 08:07:54;;;;;;;6.03;4.88;;;7.60;76.80;;;;;;5038039;28;20044;-59
2022/03/12 08:10:21;;;;;;;7.68;5.00;;;7.80;76.70;;;;;;5032721;28;20674;-60
2022/03/12 08:12:48;;;;;;;5.45;4.95;;;7.90;76.30;;;;;;5041453;28;20055;-60
2022/03/12 08:15:15;;;;;;;9.30;5.18;;;8.10;76.10;;;;;;5041816;28;20047;-60
2022/03/12 08:17:41;;;;;;;6.20;5.35;;;8.30;76.90;;;;;;5035343;28;20051;-60
2022/03/12 08:20:08;;;;;;;8.25;5.78;;;8.40;77.30;;;;;;5036503;28;20050;-60
2022/03/12 08:22:38;;;;;;;8.68;5.68;;;8.60;76.70;;;;;;5035334;28;20387;-60
2022/03/12 08:25:09;;;;;;;10.07;5.63;;;8.70;75.80;;;;;;5045431;28;20052;-61
2022/03/12 08:27:35;;;;;;;6.65;5.78;;;8.80;73.90;;;;;;5021337;28;20863;-60
2022/03/12 08:30:05;;;;;;;9.80;7.15;;;9.00;73.90;;;;;;5034781;28;20143;-60
2022/03/12 08:32:30;;;;;;;7.32;5.50;;;9.10;73.40;;;;;;5037364;28;20057;-60
2022/03/12 08:34:58;;;;;;;7.97;5.57;;;9.40;72.50;;;;;;5039080;28;20041;-60
2022/03/12 08:37:24;;;;;;;9.27;5.55;;;9.70;71.40;;;;;;5038160;28;20461;-60
2022/03/12 08:39:49;;;;;;;9.18;6.22;;;10.00;69.70;;;;;;5039117;28;20051;-60
2022/03/12 08:42:15;;;;;;;7.53;6.28;;;10.40;66.90;;;;;;5034931;28;20059;-60
2022/03/12 08:44:41;;;;;;;7.95;5.80;;;11.00;66.40;;;;;;5039071;28;20032;-60
2022/03/12 08:47:07;;;;;;;10.02;5.68;;;11.70;64.50;;;;;;5045048;28;21001;-60
2022/03/12 08:49:33;;;;;;;11.48;6.50;;;12.50;62.70;;;;;;5037040;28;20093;-60
2022/03/12 08:51:59;;;;;;;8.13;6.03;;;13.00;59.80;;;;;;5018932;28;20044;-60
2022/03/12 08:54:25;;;;;;;9.75;6.13;;;13.70;58.70;;;;;;5033410;28;20145;-60
2022/03/12 08:56:51;;;;;;;11.43;6.82;;;14.10;57.40;;;;;;5043586;28;20051;-60
2022/03/12 08:59:17;;;;;;;8.98;5.72;;;14.10;56.90;;;;;;5024490;28;20048;-61
2022/03/12 09:01:44;;;;;;;8.80;5.60;;;14.10;56.20;;;;;;5037224;28;20051;-60
2022/03/12 09:04:12;;;;;;;9.23;6.28;;;14.00;56.40;;;;;;5047237;28;20056;-60
2022/03/12 09:06:38;;;;;;;8.98;6.30;;;13.90;55.80;;;;;;5040584;28;20049;-60
2022/03/12 09:09:04;;;;;;;8.32;6.22;;;14.00;56.00;;;;;;5048945;28;20124;-60
2022/03/12 09:11:29;;;;;;;8.70;6.22;;;14.40;56.40;;;;;;5037959;28;20053;-60
2022/03/12 09:13:55;;;;;;;8.38;6.15;;;14.60;56.50;;;;;;5041498;28;20041;-60
2022/03/12 09:16:22;;;;;;;8.80;6.20;;;14.80;56.30;;;;;;5039738;28;20052;-60
2022/03/12 09:18:47;;;;;;;7.55;6.10;;;14.70;55.60;;;;;;5040552;28;20119;-61
2022/03/12 09:21:13;;;;;;;9.25;6.85;;;14.70;55.90;;;;;;5043838;28;20049;-60
2022/03/12 09:23:42;;;;;;;9.00;6.88;;;15.10;56.10;;;;;;5046165;28;20119;-60
2022/03/12 09:26:07;;;;;;;7.78;6.75;;;15.40;55.50;;;;;;5042137;28;20122;-60
2022/03/12 09:28:33;;;;;;;8.77;6.38;;;15.50;55.40;;;;;;5043545;28;20050;-60
2022/03/12 09:30:59;;;;;;;8.63;6.60;;;15.80;54.30;;;;;;5037680;28;20066;-60
2022/03/12 09:33:24;;;;;;;9.25;6.50;;;16.00;54.10;;;;;;5001895;28;20556;-60
2022/03/12 09:35:54;;;;;;;8.57;6.93;;;15.90;54.40;;;;;;5024442;28;20463;-60
2022/03/12 09:38:20;;;;;;;8.65;6.90;;;15.90;54.20;;;;;;5022849;28;20110;-60
2022/03/12 09:40:49;;;;;;;12.13;7.90;;;16.00;54.40;;;;;;5024284;28;20036;-61
2022/03/12 09:43:15;;;;;;;8.98;7.25;;;16.20;54.00;;;;;;5019494;28;21026;-60
2022/03/12 09:45:41;;;;;;;10.00;6.30;;;16.70;54.60;;;;;;5026295;28;20041;-61
2022/03/12 09:48:07;;;;;;;10.43;7.07;;;16.90;54.50;;;;;;5019804;28;20300;-63
2022/03/12 09:50:33;;;;;;;8.77;6.80;;;17.30;54.40;;;;;;5020530;28;20060;-60
2022/03/12 09:52:59;;;;;;;8.20;7.38;;;17.40;54.10;;;;;;5030071;28;20076;-60
2022/03/12 09:55:27;;;;;;;9.38;6.40;;;17.40;54.00;;;;;;5010058;28;20569;-60
2022/03/12 09:57:53;;;;;;;8.30;6.50;;;17.00;54.10;;;;;;5023402;28;20199;-60
2022/03/12 10:00:19;;;;;;;9.50;6.88;;;16.90;54.30;;;;;;5027442;28;20049;-59
2022/03/12 10:02:46;;;;;;;9.60;7.15;;;17.00;53.50;;;;;;5004038;28;20616;-59
2022/03/12 10:05:13;;;;;;;11.82;7.75;;;17.40;54.50;;;;;;5001120;28;20065;-60
2022/03/12 10:07:42;;;;;;;8.43;6.45;;;17.20;54.30;;;;;;5020674;28;20040;-60
2022/03/12 10:10:15;;;;;;;10.25;7.43;;;16.60;54.90;;;;;;5015557;28;20879;-61
2022/03/12 10:12:43;;;;;;;11.73;7.25;;;16.70;55.70;;;;;;5017282;28;20053;-59
2022/03/12 10:15:10;;;;;;;10.48;6.47;;;16.50;56.10;;;;;;5020181;28;20122;-59
2022/03/12 10:17:36;;;;;;;10.48;8.32;;;16.60;56.20;;;;;;5022341;28;20124;-60
2022/03/12 10:20:03;;;;;;;10.90;7.82;;;16.50;56.50;;;;;;5020904;28;20156;-59
2022/03/12 10:22:29;;;;;;;12.45;7.45;;;16.50;57.20;;;;;;5016679;28;20037;-59
2022/03/12 10:24:55;;;;;;;8.65;7.35;;;16.10;57.70;;;;;;5017191;28;20054;-60
2022/03/12 10:27:20;;;;;;;8.98;7.13;;;16.10;58.30;;;;;;4998140;28;20126;-61
2022/03/12 10:29:46;;;;;;;10.93;7.40;;;16.20;58.50;;;;;;4993350;28;20584;-59
2022/03/12 10:32:26;;;;;;;8.57;6.07;;;16.10;59.40;;;;;;5020312;28;20060;-61
2022/03/12 10:34:55;;;;;;;16.63;7.78;;;16.20;59.60;;;;;;5043037;28;20052;-61
2022/03/12 10:37:25;;;;;;;8.77;7.68;;;16.00;60.20;;;;;;5031388;28;20080;-61
2022/03/12 10:40:12;;;;;;;10.35;7.32;;;15.90;61.00;;;;;;5032446;28;20062;-61
2022/03/12 10:42:45;;;;;;;10.85;6.50;;;15.80;62.60;;;;;;5036594;28;20644;-61
2022/03/12 10:45:13;;;;;;;9.40;6.95;;;16.00;63.40;;;;;;5023041;28;20132;-61
2022/03/12 10:47:44;;;;;;;11.00;7.38;;;16.10;62.90;;;;;;5047844;28;20048;-61
2022/03/12 10:50:15;;;;;;;9.98;6.47;;;15.80;65.00;;;;;;5042959;28;20055;-61
2022/03/12 10:52:46;;;;;;;11.80;6.70;;;15.80;66.40;;;;;;5049765;28;20109;-59
2022/03/12 10:55:34;;;;;;;12.10;7.03;;;15.70;67.50;;;;;;5036211;28;20051;-59
2022/03/12 10:58:20;;;;;;;13.77;8.10;;;15.30;69.80;;;;;;5032502;28;20225;-60
2022/03/12 11:00:49;;;;;;;10.93;7.35;;;15.00;71.60;;;;;;5042550;28;20043;-60
2022/03/12 11:03:20;;;;;;;13.13;7.60;;;14.90;72.00;;;;;;5048634;28;20157;-60
2022/03/12 11:05:47;;;;;;;8.85;7.18;;;14.80;73.30;;;;;;5041850;28;20087;-60
2022/03/12 11:08:16;;;;;;;10.40;6.25;;;14.70;74.30;;;;;;5042690;28;20040;-60
2022/03/12 11:11:12;;;;;;;10.48;8.32;;;14.70;75.40;;;;;;5043513;28;20044;-60
2022/03/12 11:13:47;;;;;;;10.05;6.82;;;14.60;77.50;;;;;;5053514;28;20076;-61
2022/03/12 11:16:23;;;;;;;9.25;7.78;;;14.50;78.20;;;;;;5055847;28;20040;-61
2022/03/12 11:18:52;;;;;;;9.90;7.38;;;14.50;77.30;;;;;;5037078;28;20048;-59
2022/03/12 11:21:42;;;;;;;9.77;7.47;;;14.40;77.40;;;;;;5055513;28;20399;-59
2022/03/12 11:24:16;;;;;;;13.63;7.85;;;14.40;79.60;;;;;;5051596;28;20046;-61
2022/03/12 11:26:56;;;;;;;11.77;7.93;;;14.50;78.40;;;;;;5045340;28;20095;-61
2022/03/12 11:29:24;;;;;;;10.57;7.57;;;14.50;79.70;;;;;;5036716;28;20064;-59
2022/03/12 11:31:52;;;;;;;12.40;8.15;;;14.50;79.00;;;;;;5034844;28;20102;-60
2022/03/12 11:34:22;;;;;;;11.32;8.45;;;14.60;79.10;;;;;;5040051;28;20122;-59
2022/03/12 11:36:56;;;;;;;10.63;7.43;;;14.60;80.00;;;;;;5034964;28;20052;-59
2022/03/12 11:39:48;;;;;;;12.25;7.55;;;14.70;79.40;;;;;;5042900;28;20040;-60
2022/03/12 11:42:22;;;;;;;11.70;7.32;;;14.70;81.50;;;;;;5038312;28;20079;-60
2022/03/12 11:44:50;;;;;;;9.23;6.97;;;14.70;80.00;;;;;;5028202;28;20951;-59
2022/03/12 11:47:19;;;;;;;9.43;6.88;;;14.60;81.30;;;;;;5045231;28;20119;-60
2022/03/12 11:49:46;;;;;;;8.55;7.03;;;14.60;81.80;;;;;;5041858;28;20919;-59
2022/03/12 11:52:12;;;;;;;13.10;8.02;;;14.60;82.60;;;;;;5037129;28;20179;-60
2022/03/12 11:54:43;;;;;;;10.18;6.90;;;14.70;83.40;;;;;;5036086;28;20055;-60
2022/03/12 11:57:27;;;;;;;12.82;7.60;;;14.80;82.90;;;;;;5040229;28;20044;-60
2022/03/12 11:59:53;;;;;;;9.70;7.03;;;14.80;83.80;;;;;;5045969;28;20056;-60
2022/03/12 12:02:29;;;;;;;16.33;9.05;;;14.80;83.20;;;;;;5019686;28;20044;-60
2022/03/12 12:04:56;;;;;;;11.80;6.60;;;14.80;85.60;;;;;;5034524;28;20040;-60
2022/03/12 12:07:32;;;;;;;9.02;6.97;;;14.90;84.60;;;;;;5034667;28;20040;-60
2022/03/12 12:09:58;;;;;;;12.50;7.63;;;14.90;84.60;;;;;;5041359;28;20561;-60
2022/03/12 12:12:27;;;;;;;9.07;6.47;;;14.90;85.80;;;;;;5038649;28;20156;-59
2022/03/12 12:14:56;;;;;;;9.43;7.10;;;15.00;84.70;;;;;;5039250;28;20044;-60
2022/03/12 12:17:21;;;;;;;9.90;7.25;;;15.00;84.50;;;;;;5042813;28;20072;-60
2022/03/12 12:19:47;;;;;;;10.68;7.38;;;15.00;84.60;;;;;;5039036;28;20143;-60
2022/03/12 12:22:14;;;;;;;8.98;6.50;;;15.00;85.10;;;;;;5037735;28;20047;-60
2022/03/12 12:24:41;;;;;;;10.98;7.97;;;15.10;86.40;;;;;;5039538;28;20041;-62
2022/03/12 12:27:09;;;;;;;9.65;5.78;;;15.10;86.60;;;;;;5041266;28;20052;-61
2022/03/12 12:29:55;;;;;;;9.20;6.80;;;15.20;85.30;;;;;;5038162;28;20048;-61
2022/03/12 12:32:25;;;;;;;9.43;7.22;;;15.20;87.00;;;;;;5044334;28;20095;-61
2022/03/12 12:35:04;;;;;;;10.50;6.25;;;15.40;86.10;;;;;;5033257;28;20076;-62
2022/03/12 12:37:52;;;;;;;9.93;6.28;;;15.50;85.70;;;;;;5015950;28;20055;-61
2022/03/12 12:40:19;;;;;;;13.77;8.27;;;15.40;85.90;;;;;;5033794;28;20080;-61
2022/03/12 12:42:45;;;;;;;7.82;6.20;;;15.30;86.40;;;;;;5033219;28;20857;-61
2022/03/12 12:45:14;;;;;;;6.30;5.05;;;15.30;86.80;;;;;;5033772;28;20052;-61
2022/03/12 12:47:41;;;;;;;8.45;5.40;;;15.40;86.10;;;;;;5033073;28;20188;-59
2022/03/12 12:50:25;;;;;;;8.52;5.93;;;15.30;86.40;;;;;;5033005;28;20549;-59
2022/03/12 12:53:13;;;;;;;6.78;5.50;;;15.30;86.20;;;;;;5040561;28;20043;-59
2022/03/12 12:55:41;;;;;;;8.30;5.75;;;15.30;86.30;;;;;;5053779;28;20048;-61